sensor_id;sensor_type;location;lat;lon;timestamp;temperature;humidity
3784;DHT22;1907;49.238;9.262;2022-10-04T00:00:21;7.00;99.90
3784;DHT22;1907;49.238;9.262;2022-10-04T00:02:49;6.90;99.90
3784;DHT22;1907;49.238;9.262;2022-10-04T00:05:17;6.90;99.90
3784;DHT22;1907;49.238;9.262;2022-10-04T00:07:48;6.80;99.90
3784;DHT22;1907;49.238;9.262;2022-10-04T00:10:17;6.80;99.90
3784;DHT22;1907;49.238;9.262;2022-10-04T00:12:52;6.70;99.90
3784;DHT22;1907;49.238;9.262;2022-10-04T00:15:21;6.70;99.90
3784;DHT22;1907;49.238;9.262;2022-10-04T00:25:53;6.70;99.90
3784;DHT22;1907;49.238;9.262;2022-10-04T00:33:52;6.60;99.90
3784;DHT22;1907;49.238;9.262;2022-10-04T00:44:28;6.50;99.90
3784;DHT22;1907;49.238;9.262;2022-10-04T00:46:58;6.50;99.90
3784;DHT22;1907;49.238;9.262;2022-10-04T00:49:28;6.50;99.90
3784;DHT22;1907;49.238;9.262;2022-10-04T00:52:14;6.40;99.90
3784;DHT22;1907;49.238;9.262;2022-10-04T00:54:49;6.30;99.90
3784;DHT22;1907;49.238;9.262;2022-10-04T00:57:23;6.30;99.90
3784;DHT22;1907;49.238;9.262;2022-10-04T00:59:52;6.30;99.90
3784;DHT22;1907;49.238;9.262;2022-10-04T01:02:21;6.30;99.90
3784;DHT22;1907;49.238;9.262;2022-10-04T01:04:57;6.20;99.90
3784;DHT22;1907;49.238;9.262;2022-10-04T01:07:32;6.20;99.90
3784;DHT22;1907;49.238;9.262;2022-10-04T01:10:06;6.20;99.90
3784;DHT22;1907;49.238;9.262;2022-10-04T01:12:40;6.20;99.90
3784;DHT22;1907;49.238;9.262;2022-10-04T01:15:40;6.20;99.90
3784;DHT22;1907;49.238;9.262;2022-10-04T01:20:53;6.10;99.90
3784;DHT22;1907;49.238;9.262;2022-10-04T01:31:33;6.00;99.90
3784;DHT22;1907;49.238;9.262;2022-10-04T01:33:59;6.00;99.90
3784;DHT22;1907;49.238;9.262;2022-10-04T01:36:26;6.00;99.90
3784;DHT22;1907;49.238;9.262;2022-10-04T01:38:53;6.00;99.90
3784;DHT22;1907;49.238;9.262;2022-10-04T01:47:29;5.80;99.90
3784;DHT22;1907;49.238;9.262;2022-10-04T01:50:00;5.80;99.90
3784;DHT22;1907;49.238;9.262;2022-10-04T01:52:36;5.80;99.90
3784;DHT22;1907;49.238;9.262;2022-10-04T01:57:44;5.70;99.90
3784;DHT22;1907;49.238;9.262;2022-10-04T02:00:12;5.60;99.90
3784;DHT22;1907;49.238;9.262;2022-10-04T02:02:45;5.60;99.90
3784;DHT22;1907;49.238;9.262;2022-10-04T02:05:17;5.50;99.90
3784;DHT22;1907;49.238;9.262;2022-10-04T02:07:45;5.50;99.90
3784;DHT22;1907;49.238;9.262;2022-10-04T02:10:16;5.50;99.90
3784;DHT22;1907;49.238;9.262;2022-10-04T02:12:45;5.60;99.90
3784;DHT22;1907;49.238;9.262;2022-10-04T02:15:12;5.50;99.90
3784;DHT22;1907;49.238;9.262;2022-10-04T02:17:41;5.60;99.90
3784;DHT22;1907;49.238;9.262;2022-10-04T02:20:17;5.60;99.90
3784;DHT22;1907;49.238;9.262;2022-10-04T02:22:45;5.60;99.90
3784;DHT22;1907;49.238;9.262;2022-10-04T02:25:14;5.60;99.90
3784;DHT22;1907;49.238;9.262;2022-10-04T02:27:40;5.60;99.90
3784;DHT22;1907;49.238;9.262;2022-10-04T02:30:08;5.60;99.90
3784;DHT22;1907;49.238;9.262;2022-10-04T02:32:36;5.60;99.90
3784;DHT22;1907;49.238;9.262;2022-10-04T02:35:26;5.60;99.90
3784;DHT22;1907;49.238;9.262;2022-10-04T02:38:21;5.60;99.90
3784;DHT22;1907;49.238;9.262;2022-10-04T02:40:54;5.60;99.90
3784;DHT22;1907;49.238;9.262;2022-10-04T02:43:22;5.50;99.90
3784;DHT22;1907;49.238;9.262;2022-10-04T02:45:55;5.50;99.90
3784;DHT22;1907;49.238;9.262;2022-10-04T02:50:59;5.50;99.90
3784;DHT22;1907;49.238;9.262;2022-10-04T02:53:59;5.50;99.90
3784;DHT22;1907;49.238;9.262;2022-10-04T02:56:26;5.40;99.90
3784;DHT22;1907;49.238;9.262;2022-10-04T02:58:53;5.40;99.90
3784;DHT22;1907;49.238;9.262;2022-10-04T03:01:56;5.40;99.90
3784;DHT22;1907;49.238;9.262;2022-10-04T03:06:53;5.40;99.90
3784;DHT22;1907;49.238;9.262;2022-10-04T03:09:21;5.50;99.90
3784;DHT22;1907;49.238;9.262;2022-10-04T03:11:48;5.50;99.90
3784;DHT22;1907;49.238;9.262;2022-10-04T03:14:23;5.40;99.90
3784;DHT22;1907;49.238;9.262;2022-10-04T03:16:51;5.40;99.90
3784;DHT22;1907;49.238;9.262;2022-10-04T03:19:19;5.40;99.90
3784;DHT22;1907;49.238;9.262;2022-10-04T03:21:49;5.40;99.90
3784;DHT22;1907;49.238;9.262;2022-10-04T03:24:19;5.40;99.90
3784;DHT22;1907;49.238;9.262;2022-10-04T03:26:48;5.40;99.90
3784;DHT22;1907;49.238;9.262;2022-10-04T03:29:15;5.30;99.90
3784;DHT22;1907;49.238;9.262;2022-10-04T03:31:47;5.40;99.90
3784;DHT22;1907;49.238;9.262;2022-10-04T03:34:32;5.40;99.90
3784;DHT22;1907;49.238;9.262;2022-10-04T03:36:59;5.40;99.90
3784;DHT22;1907;49.238;9.262;2022-10-04T03:39:46;5.40;99.90
3784;DHT22;1907;49.238;9.262;2022-10-04T03:42:24;5.40;99.90
3784;DHT22;1907;49.238;9.262;2022-10-04T03:44:54;5.40;99.90
3784;DHT22;1907;49.238;9.262;2022-10-04T03:47:30;5.40;99.90
3784;DHT22;1907;49.238;9.262;2022-10-04T03:50:09;5.40;99.90
3784;DHT22;1907;49.238;9.262;2022-10-04T03:52:45;5.40;99.90
3784;DHT22;1907;49.238;9.262;2022-10-04T03:55:14;5.30;99.90
3784;DHT22;1907;49.238;9.262;2022-10-04T03:57:40;5.30;99.90
3784;DHT22;1907;49.238;9.262;2022-10-04T04:00:06;5.30;99.90
3784;DHT22;1907;49.238;9.262;2022-10-04T04:02:59;5.30;99.90
3784;DHT22;1907;49.238;9.262;2022-10-04T04:05:36;5.30;99.90
3784;DHT22;1907;49.238;9.262;2022-10-04T04:08:41;5.30;99.90
3784;DHT22;1907;49.238;9.262;2022-10-04T04:11:17;5.30;99.90
3784;DHT22;1907;49.238;9.262;2022-10-04T04:16:22;5.30;99.90
3784;DHT22;1907;49.238;9.262;2022-10-04T04:18:52;5.30;99.90
3784;DHT22;1907;49.238;9.262;2022-10-04T04:21:20;5.30;99.90
3784;DHT22;1907;49.238;9.262;2022-10-04T04:31:42;5.30;99.90
3784;DHT22;1907;49.238;9.262;2022-10-04T04:36:45;5.40;99.90
3784;DHT22;1907;49.238;9.262;2022-10-04T04:39:20;5.40;99.90
3784;DHT22;1907;49.238;9.262;2022-10-04T04:42:37;5.40;99.90
3784;DHT22;1907;49.238;9.262;2022-10-04T04:45:04;5.40;99.90
3784;DHT22;1907;49.238;9.262;2022-10-04T04:47:31;5.40;99.90
3784;DHT22;1907;49.238;9.262;2022-10-04T04:50:04;5.40;99.90
3784;DHT22;1907;49.238;9.262;2022-10-04T04:52:31;5.50;99.90
3784;DHT22;1907;49.238;9.262;2022-10-04T04:54:57;5.40;99.90
3784;DHT22;1907;49.238;9.262;2022-10-04T04:57:24;5.40;99.90
3784;DHT22;1907;49.238;9.262;2022-10-04T04:59:54;5.40;99.90
3784;DHT22;1907;49.238;9.262;2022-10-04T05:02:36;5.40;99.90
3784;DHT22;1907;49.238;9.262;2022-10-04T05:05:22;5.40;99.90
3784;DHT22;1907;49.238;9.262;2022-10-04T05:07:48;5.40;99.90
3784;DHT22;1907;49.238;9.262;2022-10-04T05:10:33;5.40;99.90
3784;DHT22;1907;49.238;9.262;2022-10-04T05:13:01;5.30;99.90
3784;DHT22;1907;49.238;9.262;2022-10-04T05:15:32;5.30;99.90
3784;DHT22;1907;49.238;9.262;2022-10-04T05:17:59;5.30;99.90
3784;DHT22;1907;49.238;9.262;2022-10-04T05:20:25;5.40;99.90
3784;DHT22;1907;49.238;9.262;2022-10-04T05:22:51;5.40;99.90
3784;DHT22;1907;49.238;9.262;2022-10-04T05:25:35;5.40;99.90
3784;DHT22;1907;49.238;9.262;2022-10-04T05:28:01;5.40;99.90
3784;DHT22;1907;49.238;9.262;2022-10-04T05:38:45;5.60;99.90
3784;DHT22;1907;49.238;9.262;2022-10-04T05:43:46;5.70;99.90
3784;DHT22;1907;49.238;9.262;2022-10-04T05:48:44;5.90;99.90
3784;DHT22;1907;49.238;9.262;2022-10-04T05:51:27;6.00;99.90
3784;DHT22;1907;49.238;9.262;2022-10-04T05:53:56;6.10;99.90
3784;DHT22;1907;49.238;9.262;2022-10-04T06:04:20;6.30;99.90
3784;DHT22;1907;49.238;9.262;2022-10-04T06:09:55;6.30;99.90
3784;DHT22;1907;49.238;9.262;2022-10-04T06:13:08;6.40;99.90
3784;DHT22;1907;49.238;9.262;2022-10-04T06:24:34;6.60;99.90
3784;DHT22;1907;49.238;9.262;2022-10-04T06:29:51;6.70;99.90
3784;DHT22;1907;49.238;9.262;2022-10-04T06:38:24;7.10;99.90
3784;DHT22;1907;49.238;9.262;2022-10-04T06:46:44;7.60;99.90
3784;DHT22;1907;49.238;9.262;2022-10-04T06:49:40;7.80;99.90
3784;DHT22;1907;49.238;9.262;2022-10-04T06:55:03;8.20;99.90
3784;DHT22;1907;49.238;9.262;2022-10-04T07:00:24;8.40;99.90
3784;DHT22;1907;49.238;9.262;2022-10-04T07:03:07;8.40;99.90
3784;DHT22;1907;49.238;9.262;2022-10-04T07:11:19;8.70;99.90
3784;DHT22;1907;49.238;9.262;2022-10-04T07:13:51;8.70;99.90
3784;DHT22;1907;49.238;9.262;2022-10-04T07:22:26;8.80;99.90
3784;DHT22;1907;49.238;9.262;2022-10-04T07:24:56;8.80;99.90
3784;DHT22;1907;49.238;9.262;2022-10-04T07:27:35;8.90;99.90
3784;DHT22;1907;49.238;9.262;2022-10-04T07:30:12;9.00;99.90
3784;DHT22;1907;49.238;9.262;2022-10-04T07:32:44;9.10;99.90
3784;DHT22;1907;49.238;9.262;2022-10-04T07:40:35;9.40;99.90
3784;DHT22;1907;49.238;9.262;2022-10-04T07:43:12;9.50;99.90
3784;DHT22;1907;49.238;9.262;2022-10-04T07:45:40;9.60;99.90
3784;DHT22;1907;49.238;9.262;2022-10-04T07:56:17;10.30;99.90
3784;DHT22;1907;49.238;9.262;2022-10-04T07:58:51;10.60;99.90
3784;DHT22;1907;49.238;9.262;2022-10-04T08:01:45;10.80;99.90
3784;DHT22;1907;49.238;9.262;2022-10-04T08:04:36;11.00;99.90
3784;DHT22;1907;49.238;9.262;2022-10-04T08:07:25;11.40;99.90
3784;DHT22;1907;49.238;9.262;2022-10-04T08:15:39;11.60;99.90
3784;DHT22;1907;49.238;9.262;2022-10-04T08:21:06;11.70;99.90
3784;DHT22;1907;49.238;9.262;2022-10-04T08:35:31;12.70;99.90
3784;DHT22;1907;49.238;9.262;2022-10-04T08:43:56;12.90;99.90
3784;DHT22;1907;49.238;9.262;2022-10-04T08:55:04;13.30;99.90
3784;DHT22;1907;49.238;9.262;2022-10-04T09:09:28;13.90;99.90
3784;DHT22;1907;49.238;9.262;2022-10-04T09:12:32;13.90;99.90
3784;DHT22;1907;49.238;9.262;2022-10-04T09:21:09;13.90;99.90
3784;DHT22;1907;49.238;9.262;2022-10-04T09:26:51;14.10;99.90
3784;DHT22;1907;49.238;9.262;2022-10-04T10:13:31;15.30;99.90
3784;DHT22;1907;49.238;9.262;2022-10-04T10:27:01;16.10;99.90
3784;DHT22;1907;49.238;9.262;2022-10-04T10:37:56;16.60;99.90
3784;DHT22;1907;49.238;9.262;2022-10-04T10:49:12;16.80;99.90
3784;DHT22;1907;49.238;9.262;2022-10-04T10:54:26;17.20;99.90
3784;DHT22;1907;49.238;9.262;2022-10-04T11:06:06;18.20;99.90
3784;DHT22;1907;49.238;9.262;2022-10-04T11:14:36;18.90;99.90
3784;DHT22;1907;49.238;9.262;2022-10-04T11:17:18;19.10;99.90
3784;DHT22;1907;49.238;9.262;2022-10-04T11:28:40;20.70;99.90
3784;DHT22;1907;49.238;9.262;2022-10-04T11:31:29;20.70;99.90
3784;DHT22;1907;49.238;9.262;2022-10-04T11:34:17;20.30;99.90
3784;DHT22;1907;49.238;9.262;2022-10-04T12:32:02;18.80;99.90
3784;DHT22;1907;49.238;9.262;2022-10-04T12:37:15;18.60;99.90
3784;DHT22;1907;49.238;9.262;2022-10-04T12:48:36;18.60;99.90
3784;DHT22;1907;49.238;9.262;2022-10-04T12:53:52;18.40;99.90
3784;DHT22;1907;49.238;9.262;2022-10-04T13:02:13;18.40;99.90
3784;DHT22;1907;49.238;9.262;2022-10-04T13:04:58;18.30;99.90
3784;DHT22;1907;49.238;9.262;2022-10-04T13:29:26;18.20;99.90
3784;DHT22;1907;49.238;9.262;2022-10-04T13:37:34;18.10;99.90
3784;DHT22;1907;49.238;9.262;2022-10-04T13:42:54;18.10;99.90
3784;DHT22;1907;49.238;9.262;2022-10-04T13:45:35;18.10;99.90
3784;DHT22;1907;49.238;9.262;2022-10-04T14:07:47;18.00;99.90
3784;DHT22;1907;49.238;9.262;2022-10-04T14:10:36;18.00;99.90
3784;DHT22;1907;49.238;9.262;2022-10-04T14:25:37;18.10;99.90
3784;DHT22;1907;49.238;9.262;2022-10-04T14:33:42;18.10;99.90
3784;DHT22;1907;49.238;9.262;2022-10-04T14:44:32;18.10;99.90
3784;DHT22;1907;49.238;9.262;2022-10-04T14:55:17;18.10;99.90
3784;DHT22;1907;49.238;9.262;2022-10-04T15:06:25;18.10;99.90
3784;DHT22;1907;49.238;9.262;2022-10-04T15:16:59;18.20;99.90
3784;DHT22;1907;49.238;9.262;2022-10-04T15:19:28;18.20;99.90
3784;DHT22;1907;49.238;9.262;2022-10-04T15:22:11;18.20;99.90
3784;DHT22;1907;49.238;9.262;2022-10-04T15:24:49;18.20;99.90
3784;DHT22;1907;49.238;9.262;2022-10-04T15:41:24;18.00;99.90
3784;DHT22;1907;49.238;9.262;2022-10-04T15:46:37;18.00;99.90
3784;DHT22;1907;49.238;9.262;2022-10-04T16:00:11;17.80;99.90
3784;DHT22;1907;49.238;9.262;2022-10-04T16:12:03;17.50;99.90
3784;DHT22;1907;49.238;9.262;2022-10-04T16:14:36;17.40;99.90
3784;DHT22;1907;49.238;9.262;2022-10-04T16:17:12;17.30;99.90
3784;DHT22;1907;49.238;9.262;2022-10-04T16:25:54;17.00;99.90
3784;DHT22;1907;49.238;9.262;2022-10-04T16:36:47;16.80;99.90
3784;DHT22;1907;49.238;9.262;2022-10-04T16:42:17;16.60;99.90
3784;DHT22;1907;49.238;9.262;2022-10-04T16:47:21;16.40;99.90
3784;DHT22;1907;49.238;9.262;2022-10-04T16:49:51;16.40;99.90
3784;DHT22;1907;49.238;9.262;2022-10-04T16:57:25;16.20;99.90
3784;DHT22;1907;49.238;9.262;2022-10-04T16:59:57;16.10;99.90
3784;DHT22;1907;49.238;9.262;2022-10-04T17:02:43;15.90;99.90
3784;DHT22;1907;49.238;9.262;2022-10-04T17:05:38;15.80;99.90
3784;DHT22;1907;49.238;9.262;2022-10-04T17:13:42;15.60;99.90
3784;DHT22;1907;49.238;9.262;2022-10-04T17:16:33;15.50;99.90
3784;DHT22;1907;49.238;9.262;2022-10-04T17:24:21;14.80;99.90
3784;DHT22;1907;49.238;9.262;2022-10-04T17:27:14;14.60;99.90
3784;DHT22;1907;49.238;9.262;2022-10-04T17:30:39;14.50;99.90
3784;DHT22;1907;49.238;9.262;2022-10-04T17:35:53;14.30;99.90
3784;DHT22;1907;49.238;9.262;2022-10-04T17:39:09;14.40;99.90
3784;DHT22;1907;49.238;9.262;2022-10-04T17:44:36;14.40;99.90
3784;DHT22;1907;49.238;9.262;2022-10-04T17:47:13;14.40;99.90
3784;DHT22;1907;49.238;9.262;2022-10-04T17:52:54;14.50;99.90
3784;DHT22;1907;49.238;9.262;2022-10-04T17:58:24;14.40;99.90
3784;DHT22;1907;49.238;9.262;2022-10-04T18:03:30;14.20;99.90
3784;DHT22;1907;49.238;9.262;2022-10-04T18:06:01;14.20;99.90
3784;DHT22;1907;49.238;9.262;2022-10-04T18:13:54;13.50;99.90
3784;DHT22;1907;49.238;9.262;2022-10-04T18:16:31;13.40;99.90
3784;DHT22;1907;49.238;9.262;2022-10-04T18:22:17;13.40;99.90
3784;DHT22;1907;49.238;9.262;2022-10-04T18:24:47;13.40;99.90
3784;DHT22;1907;49.238;9.262;2022-10-04T18:27:23;13.40;99.90
3784;DHT22;1907;49.238;9.262;2022-10-04T18:32:37;13.40;99.90
3784;DHT22;1907;49.238;9.262;2022-10-04T18:35:28;13.30;99.90
3784;DHT22;1907;49.238;9.262;2022-10-04T18:38:26;13.20;99.90
3784;DHT22;1907;49.238;9.262;2022-10-04T18:41:14;13.10;99.90
3784;DHT22;1907;49.238;9.262;2022-10-04T18:46:24;12.90;99.90
3784;DHT22;1907;49.238;9.262;2022-10-04T18:51:24;12.90;99.90
3784;DHT22;1907;49.238;9.262;2022-10-04T18:54:08;12.90;99.90
3784;DHT22;1907;49.238;9.262;2022-10-04T18:59:25;12.90;99.90
3784;DHT22;1907;49.238;9.262;2022-10-04T19:02:23;12.90;99.90
3784;DHT22;1907;49.238;9.262;2022-10-04T19:05:12;12.80;99.90
3784;DHT22;1907;49.238;9.262;2022-10-04T19:13:22;12.60;99.90
3784;DHT22;1907;49.238;9.262;2022-10-04T19:18:45;12.50;99.90
3784;DHT22;1907;49.238;9.262;2022-10-04T19:21:29;12.50;99.90
3784;DHT22;1907;49.238;9.262;2022-10-04T19:46:58;11.90;99.90
3784;DHT22;1907;49.238;9.262;2022-10-04T19:49:34;11.70;99.90
3784;DHT22;1907;49.238;9.262;2022-10-04T19:54:42;11.50;99.90
3784;DHT22;1907;49.238;9.262;2022-10-04T19:57:14;11.50;99.90
3784;DHT22;1907;49.238;9.262;2022-10-04T19:59:44;11.40;99.90
3784;DHT22;1907;49.238;9.262;2022-10-04T20:02:12;11.30;99.90
3784;DHT22;1907;49.238;9.262;2022-10-04T20:04:38;11.30;99.90
3784;DHT22;1907;49.238;9.262;2022-10-04T20:07:19;11.30;99.90
3784;DHT22;1907;49.238;9.262;2022-10-04T20:09:54;11.30;99.90
3784;DHT22;1907;49.238;9.262;2022-10-04T20:12:33;11.30;99.90
3784;DHT22;1907;49.238;9.262;2022-10-04T20:17:59;11.20;99.90
3784;DHT22;1907;49.238;9.262;2022-10-04T20:23:04;11.20;99.90
3784;DHT22;1907;49.238;9.262;2022-10-04T20:30:53;11.30;99.90
3784;DHT22;1907;49.238;9.262;2022-10-04T20:33:47;11.20;99.90
3784;DHT22;1907;49.238;9.262;2022-10-04T20:39:01;11.00;99.90
3784;DHT22;1907;49.238;9.262;2022-10-04T20:44:00;10.80;99.90
3784;DHT22;1907;49.238;9.262;2022-10-04T20:46:32;10.70;99.90
3784;DHT22;1907;49.238;9.262;2022-10-04T20:49:01;10.70;99.90
3784;DHT22;1907;49.238;9.262;2022-10-04T20:51:29;10.60;99.90
3784;DHT22;1907;49.238;9.262;2022-10-04T20:53:58;10.60;99.90
3784;DHT22;1907;49.238;9.262;2022-10-04T20:56:29;10.60;99.90
3784;DHT22;1907;49.238;9.262;2022-10-04T21:01:22;10.50;99.90
3784;DHT22;1907;49.238;9.262;2022-10-04T21:04:23;10.50;99.90
3784;DHT22;1907;49.238;9.262;2022-10-04T21:07:07;10.50;99.90
3784;DHT22;1907;49.238;9.262;2022-10-04T21:09:36;10.40;99.90
3784;DHT22;1907;49.238;9.262;2022-10-04T21:12:03;10.40;99.90
3784;DHT22;1907;49.238;9.262;2022-10-04T21:14:32;10.40;99.90
3784;DHT22;1907;49.238;9.262;2022-10-04T21:17:04;10.40;99.90
3784;DHT22;1907;49.238;9.262;2022-10-04T21:19:48;10.30;99.90
3784;DHT22;1907;49.238;9.262;2022-10-04T21:27:13;10.20;99.90
3784;DHT22;1907;49.238;9.262;2022-10-04T21:29:49;10.20;99.90
3784;DHT22;1907;49.238;9.262;2022-10-04T21:32:18;10.10;99.90
3784;DHT22;1907;49.238;9.262;2022-10-04T21:34:44;10.10;99.90
3784;DHT22;1907;49.238;9.262;2022-10-04T21:37:09;10.00;99.90
3784;DHT22;1907;49.238;9.262;2022-10-04T21:39:35;9.90;99.90
3784;DHT22;1907;49.238;9.262;2022-10-04T21:42:00;9.80;99.90
3784;DHT22;1907;49.238;9.262;2022-10-04T21:44:26;9.80;99.90
3784;DHT22;1907;49.238;9.262;2022-10-04T21:46:51;9.80;99.90
3784;DHT22;1907;49.238;9.262;2022-10-04T21:49:17;9.80;99.90
3784;DHT22;1907;49.238;9.262;2022-10-04T21:51:43;9.90;99.90
3784;DHT22;1907;49.238;9.262;2022-10-04T21:54:08;9.90;99.90
3784;DHT22;1907;49.238;9.262;2022-10-04T21:56:34;9.90;99.90
3784;DHT22;1907;49.238;9.262;2022-10-04T21:58:59;9.90;99.90
3784;DHT22;1907;49.238;9.262;2022-10-04T22:01:25;9.90;99.90
3784;DHT22;1907;49.238;9.262;2022-10-04T22:03:50;9.90;99.90
3784;DHT22;1907;49.238;9.262;2022-10-04T22:06:17;9.90;99.90
3784;DHT22;1907;49.238;9.262;2022-10-04T22:08:43;9.80;99.90
3784;DHT22;1907;49.238;9.262;2022-10-04T22:11:09;9.80;99.90
3784;DHT22;1907;49.238;9.262;2022-10-04T22:13:35;9.80;99.90
3784;DHT22;1907;49.238;9.262;2022-10-04T22:16:01;9.70;99.90
3784;DHT22;1907;49.238;9.262;2022-10-04T22:18:28;9.60;99.90
3784;DHT22;1907;49.238;9.262;2022-10-04T22:20:53;9.60;99.90
3784;DHT22;1907;49.238;9.262;2022-10-04T22:23:23;9.60;99.90
3784;DHT22;1907;49.238;9.262;2022-10-04T22:25:49;9.60;99.90
3784;DHT22;1907;49.238;9.262;2022-10-04T22:30:46;9.50;99.90
3784;DHT22;1907;49.238;9.262;2022-10-04T22:35:56;9.50;99.90
3784;DHT22;1907;49.238;9.262;2022-10-04T22:38:23;9.40;99.90
3784;DHT22;1907;49.238;9.262;2022-10-04T22:40:48;9.30;99.90
3784;DHT22;1907;49.238;9.262;2022-10-04T22:43:14;9.20;99.90
3784;DHT22;1907;49.238;9.262;2022-10-04T22:45:41;9.20;99.90
3784;DHT22;1907;49.238;9.262;2022-10-04T22:48:13;9.20;99.90
3784;DHT22;1907;49.238;9.262;2022-10-04T22:50:39;9.10;99.90
3784;DHT22;1907;49.238;9.262;2022-10-04T22:53:16;9.10;99.90
3784;DHT22;1907;49.238;9.262;2022-10-04T22:55:43;9.00;99.90
3784;DHT22;1907;49.238;9.262;2022-10-04T22:58:13;9.00;99.90
3784;DHT22;1907;49.238;9.262;2022-10-04T23:00:40;8.90;99.90
3784;DHT22;1907;49.238;9.262;2022-10-04T23:03:25;8.90;99.90
3784;DHT22;1907;49.238;9.262;2022-10-04T23:05:51;9.00;99.90
3784;DHT22;1907;49.238;9.262;2022-10-04T23:08:17;9.00;99.90
3784;DHT22;1907;49.238;9.262;2022-10-04T23:10:44;8.90;99.90
3784;DHT22;1907;49.238;9.262;2022-10-04T23:13:10;8.90;99.90
3784;DHT22;1907;49.238;9.262;2022-10-04T23:15:36;8.90;99.90
3784;DHT22;1907;49.238;9.262;2022-10-04T23:18:04;8.90;99.90
3784;DHT22;1907;49.238;9.262;2022-10-04T23:20:36;8.80;99.90
3784;DHT22;1907;49.238;9.262;2022-10-04T23:23:04;8.80;99.90
3784;DHT22;1907;49.238;9.262;2022-10-04T23:25:34;8.80;99.90
3784;DHT22;1907;49.238;9.262;2022-10-04T23:28:11;8.80;99.90
3784;DHT22;1907;49.238;9.262;2022-10-04T23:30:37;8.70;99.90
3784;DHT22;1907;49.238;9.262;2022-10-04T23:33:12;8.70;99.90
3784;DHT22;1907;49.238;9.262;2022-10-04T23:35:38;8.70;99.90
3784;DHT22;1907;49.238;9.262;2022-10-04T23:38:03;8.70;99.90
3784;DHT22;1907;49.238;9.262;2022-10-04T23:40:31;8.70;99.90
3784;DHT22;1907;49.238;9.262;2022-10-04T23:42:58;8.70;99.90
3784;DHT22;1907;49.238;9.262;2022-10-04T23:45:26;8.70;99.90
3784;DHT22;1907;49.238;9.262;2022-10-04T23:47:56;8.70;99.90
3784;DHT22;1907;49.238;9.262;2022-10-04T23:50:28;8.70;99.90
3784;DHT22;1907;49.238;9.262;2022-10-04T23:52:55;8.70;99.90
3784;DHT22;1907;49.238;9.262;2022-10-04T23:55:29;8.70;99.90
3784;DHT22;1907;49.238;9.262;2022-10-04T23:57:58;8.70;99.90
